• Join FlightAware (Why Join?)
  • Login
  • US Flag 
01:28PM EDT


 

Airport Tracker/Info


-or-


 

Live Flight TrackerFlight Track Log ✈ JBU767 ✈ 21-Apr-2013 ✈ KMCO - TJPS / PSE

Flight Track Log - Related Links

Times and Time Zones

All times are in EDT time to prevent confusion due to time zone crossing. See the JBU767 flight status page for this flight to view local times or setup timezone preferences in your user account.

Time Position Orientation Groundspeed Altitude Reporting Facility
EDT Latitude Longitude Course Direction KTS MPH feet Rate Location/Type
11:33PM 28.4333 -81.3000 129° Southeast 165 190 600  Level Orlando TRACON
11:34PM 28.4500 -81.2333 74° East 231 266 2,700 2,340 Climbing Orlando TRACON
11:35PM 28.4167 -81.1833 127° Southeast 226 260 6,000 3,120 Climbing Orlando TRACON
11:36PM 25.7362 -78.4342 122° Southeast  Level FlightAware Approximate
11:36PM 28.3667 -81.1333 139° Southeast 230 265 9,000  Level Orlando TRACON
11:37PM 25.6731 -78.3400 129° Southeast  Level FlightAware Approximate
11:37PM 28.3606 -81.1172 113° Southeast 230 265 9,300  Level Miami Center
11:38PM 25.6066 -78.2486 129° Southeast  Level FlightAware Approximate
11:38PM 28.3183 -81.0636 132° Southeast 255 293 11,900  Level Miami Center
11:39PM 28.2661 -80.9958 131° Southeast 250 288 14,500 1,740 Climbing Miami Center
11:40PM 28.2206 -80.9142 122° Southeast 290 334 15,400 1,140 Climbing Miami Center
11:41PM 28.1744 -80.8394 125° Southeast 340 391 16,900 1,560 Climbing Miami Center
11:42PM 28.1128 -80.7314 123° Southeast 363 418 18,600 1,800 Climbing Miami Center
11:43PM 28.0508 -80.6281 124° Southeast 377 434 20,500 1,740 Climbing Miami Center
11:44PM 28.0100 -80.5114 112° Southeast 387 445 22,100 1,620 Climbing Miami Center
11:45PM 27.9714 -80.3856 109° East 414 476 23,800 1,620 Climbing Miami Center
11:46PM 27.9347 -80.2600 108° East 419 482 25,400 1,500 Climbing Miami Center
11:47PM 27.8942 -80.1178 108° East 432 497 26,800 1,140 Climbing Miami Center
11:48PM 27.8297 -80.0150 125° Southeast 432 497 27,700 1,080 Climbing Miami Center
11:49PM 27.7592 -79.8981 124° Southeast 438 504 29,000 1,140 Climbing Miami Center
11:50PM 27.6883 -79.7836 125° Southeast 447 514 30,100 840 Climbing Miami Center
11:51PM 27.6389 -79.6464 112° Southeast 467 537 30,700 900 Climbing Miami Center
11:52PM 27.6108 -79.4817 101° East 473 544 32,000 1,080 Climbing Miami Center
11:53PM 27.5819 -79.3333 102° East 479 551 32,900 1,020 Climbing Miami Center
11:54PM 27.5428 -79.1897 107° East 474 545 34,100 900 Climbing Miami Center
11:55PM 27.4881 -79.0667 117° Southeast 484 557 34,800 900 Climbing Miami Center
11:56PM 27.4003 -78.9364 127° Southeast 477 549 35,900 1,080 Climbing Miami Center
11:57PM 27.3269 -78.8133 124° Southeast 477 549 37,000 540 Climbing Miami Center
11:58PM 27.2489 -78.7000 128° Southeast 472 543 37,000  Level Miami Center
11:59PM 27.1792 -78.5914 126° Southeast 472 543 37,000  Level Miami Center
12:00AM 27.0992 -78.4783 128° Southeast 472 543 37,000  Level Miami Center
12:01AM 27.0147 -78.3536 127° Southeast 466 536 37,000  Level Miami Center
12:02AM 26.9386 -78.2383 127° Southeast 460 529 37,000  Level Miami Center
12:03AM 26.8603 -78.1211 127° Southeast 465 535 37,000  Level Miami Center
12:04AM 26.7797 -78.0036 128° Southeast 471 542 37,000  Level Miami Center
12:05AM 26.7014 -77.8844 126° Southeast 478 550 37,000  Level Miami Center
12:06AM 26.6228 -77.7722 128° Southeast 471 542 37,000  Level Miami Center
12:07AM 26.5419 -77.6531 127° Southeast 471 542 37,000  Level Miami Center
12:08AM 26.4631 -77.5319 126° Southeast 471 542 37,000  Level Miami Center
12:09AM 26.3906 -77.4294 128° Southeast 476 548 37,000  Level Miami Center
12:10AM 26.3094 -77.3108 127° Southeast 476 548 37,000  Level Miami Center
12:11AM 26.2303 -77.1969 128° Southeast 476 548 37,000  Level Miami Center
12:12AM 26.1489 -77.0764 127° Southeast 476 548 37,000  Level Miami Center
12:13AM 26.0675 -76.9606 128° Southeast 470 541 37,000  Level Miami Center
12:14AM 25.9861 -76.8447 128° Southeast 470 541 37,000  Level Miami Center
12:15AM 25.8878 -76.7503 139° Southeast 470 541 37,000  Level Miami Center
12:16AM 25.7894 -76.6533 138° Southeast 470 541 37,000  Level Miami Center
12:17AM 25.6869 -76.5567 140° Southeast 470 541 37,000  Level Miami Center
12:18AM 25.5906 -76.4625 139° Southeast 470 541 37,000  Level Miami Center
12:19AM 25.4942 -76.3661 138° Southeast 470 541 37,000  Level Miami Center
12:20AM 25.4019 -76.2606 134° Southeast 470 541 37,000  Level Miami Center
12:21AM 25.3197 -76.1461 128° Southeast 469 540 37,000  Level Miami Center
12:22AM 25.2439 -76.0292 126° Southeast 469 540 37,000  Level Miami Center
12:23AM 25.1617 -75.9128 128° Southeast 474 545 37,000  Level Miami Center
12:24AM 25.0794 -75.7964 128° Southeast 479 551 37,000  Level Miami Center
12:25AM 24.9886 -75.6689 128° Southeast 479 551 37,000  Level Miami Center
12:26AM 24.9061 -75.5528 128° Southeast 479 551 37,000  Level Miami Center
12:27AM 24.8236 -75.4322 127° Southeast 485 558 37,000  Level Miami Center
12:28AM 24.7408 -75.3167 128° Southeast 485 558 37,000  Level Miami Center
12:29AM 24.6581 -75.1964 127° Southeast 485 558 37,000  Level Miami Center
12:30AM 24.5753 -75.0811 128° Southeast 485 558 37,000  Level Miami Center
12:31AM 24.4922 -74.9611 127° Southeast 485 558 37,000  Level Miami Center
12:32AM 24.4092 -74.8439 128° Southeast 485 558 37,000  Level Miami Center
12:33AM 24.3239 -74.7267 129° Southeast 485 558 37,000  Level Miami Center
12:34AM 24.2408 -74.6117 128° Southeast 485 558 37,000  Level Miami Center
12:35AM 24.1594 -74.4947 127° Southeast 485 558 37,000  Level Miami Center
12:36AM 24.0719 -74.3758 129° Southeast 485 558 37,000  Level Miami Center
12:37AM 23.9883 -74.2617 129° Southeast 485 558 37,000  Level Miami Center
12:38AM 23.9028 -74.1453 129° Southeast 485 558 37,000  Level Miami Center
12:39AM 23.8192 -74.0244 127° Southeast 485 558 37,000  Level Miami Center
12:40AM 23.7333 -73.9061 128° Southeast 485 558 37,000  Level Miami Center
12:41AM 23.6494 -73.7922 129° Southeast 485 558 37,000  Level Miami Center
12:42AM 23.5614 -73.6744 129° Southeast 491 565 37,000  Level Miami Center
12:43AM 23.4753 -73.5564 128° Southeast 491 565 37,000  Level Miami Center
12:44AM 23.3911 -73.4386 128° Southeast 496 571 37,000  Level Miami Center
12:45AM 23.2986 -73.3214 131° Southeast 496 571 37,000  Level Miami Center
12:46AM 23.2142 -73.2039 128° Southeast 496 571 37,000  Level Miami Center
12:47AM 23.1386 -73.1022 129° Southeast 491 565 37,000  Level Miami Center
12:48AM 23.0542 -72.9828 128° Southeast 491 565 37,000  Level Miami Center
12:49AM 22.9631 -72.8547 128° Southeast 491 565 37,000  Level Miami Center
12:50AM 22.8744 -72.7403 130° Southeast 491 565 37,000  Level Miami Center
12:51AM 22.7919 -72.6236 127° Southeast 485 558 37,000  Level Miami Center
12:52AM 22.7050 -72.5072 129° Southeast 485 558 37,000  Level Miami Center
12:53AM 22.6203 -72.3908 128° Southeast 490 564 37,000  Level Miami Center
12:54AM 22.5333 -72.2792 130° Southeast 490 564 37,000  Level Miami Center
12:55AM 22.4483 -72.1631 128° Southeast 485 558 37,000  Level Miami Center
12:56AM 22.3633 -72.0494 129° Southeast 485 558 37,000  Level Miami Center
12:57AM 22.2806 -71.9383 129° Southeast 485 558 37,000  Level Miami Center
12:58AM 22.1933 -71.8250 130° Southeast 485 558 37,000  Level Miami Center
12:59AM 22.1081 -71.7117 129° Southeast 485 558 37,000  Level Miami Center
01:00AM 22.0208 -71.5989 130° Southeast 485 558 37,000  Level Miami Center
01:01AM 21.9356 -71.4836 129° Southeast 485 558 37,000  Level Miami Center
01:02AM 21.8500 -71.3708 129° Southeast 485 558 37,000  Level Miami Center
01:03AM 21.7644 -71.2561 129° Southeast 485 558 37,000  Level Miami Center
01:04AM 21.6789 -71.1392 128° Southeast 490 564 37,000  Level Miami Center
01:05AM 21.6064 -71.0464 130° Southeast 490 564 37,000  Level Miami Center
01:06AM 21.5078 -70.9192 130° Southeast 502 578 37,000  Level Miami Center
01:07AM 21.4178 -70.8050 130° Southeast 507 583 37,000  Level Miami Center
01:08AM 21.3278 -70.6911 130° Southeast 507 583 37,000  Level Miami Center
01:09AM 21.2378 -70.5797 131° Southeast 502 578 37,000  Level Miami Center
01:10AM 21.1539 -70.4681 129° Southeast 496 571 37,000  Level Miami Center
01:11AM 21.0661 -70.3589 131° Southeast 496 571 37,000  Level Miami Center
01:12AM 20.9800 -70.2478 130° Southeast 496 571 37,000  Level Miami Center
01:13AM 20.8919 -70.1367 130° Southeast 496 571 37,000  Level Miami Center
01:14AM 20.8056 -70.0256 130° Southeast 496 571 37,000  Level Miami Center
01:15AM 20.7175 -69.9150 130° Southeast 491 565 37,000  Level Miami Center
01:16AM 20.6314 -69.8064 130° Southeast 491 565 37,000  Level Miami Center
01:17AM 20.5431 -69.6983 131° Southeast 491 565 37,000  Level Miami Center
01:18AM 20.4586 -69.5856 129° Southeast 491 565 37,000  Level Miami Center
01:19AM 20.3744 -69.4794 130° Southeast 486 559 37,000  Level Miami Center
01:20AM 20.2881 -69.3694 130° Southeast 486 559 37,000  Level Miami Center
01:21AM 20.2017 -69.2614 130° Southeast 486 559 37,000  Level Miami Center
01:22AM 20.1131 -69.1539 131° Southeast 486 559 37,000  Level Miami Center
01:23AM 20.0264 -69.0464 131° Southeast 486 559 37,000  Level Miami Center
01:24AM 19.9419 -68.9367 129° Southeast 481 554 37,000  Level Miami Center
01:25AM 19.8533 -68.8297 131° Southeast 481 554 37,000  Level Miami Center
01:26AM 19.7578 -68.7142 131° Southeast 481 554 37,000  Level Miami Center
01:27AM 19.6797 -68.6156 130° Southeast 486 559 37,000  Level Miami Center
01:28AM 19.6000 -68.5000 126° Southeast 490 564 37,000 -60 Level San Juan Center
01:29AM 19.5167 -68.3833 127° Southeast 480 552 36,900 -540 Descending San Juan Center
01:30AM 19.4167 -68.2833 137° Southeast 480 552 36,000 -960 Descending San Juan Center
01:31AM 19.3333 -68.1667 127° Southeast 490 564 35,000 -1,020 Descending San Juan Center
01:32AM 19.2500 -68.0667 131° Southeast 480 552 34,000 -960 Descending San Juan Center
01:33AM 19.1667 -67.9500 127° Southeast 480 552 33,100 -1,080 Descending San Juan Center
01:34AM 19.0667 -67.8500 137° Southeast 470 541 31,900 -1,320 Descending San Juan Center
01:35AM 18.9833 -67.7500 131° Southeast 450 518 30,500 -1,500 Descending San Juan Center
01:36AM 18.9000 -67.6667 137° Southeast 440 506 28,900 -1,680 Descending San Juan Center
01:37AM 18.8167 -67.5833 137° Southeast 420 483 27,200 -1,680 Descending San Juan Center
01:38AM 18.7333 -67.5000 137° Southeast 410 472 25,600 -1,740 Descending San Juan Center
01:39AM 18.6500 -67.4167 137° Southeast 400 460 23,800 -1,620 Descending San Juan Center
01:40AM 18.5667 -67.3333 137° Southeast 390 449 22,400 -1,800 Descending San Juan Center
01:41AM 18.5000 -67.2667 137° Southeast 350 403 20,300 -1,980 Descending San Juan Center
01:42AM 18.4333 -67.2000 137° Southeast 340 391 18,500 -2,040 Descending San Juan Center
01:43AM 18.3500 -67.1167 136° Southeast 330 380 16,300 -1,920 Descending San Juan Center
01:44AM 18.3000 -67.0500 128° Southeast 310 357 14,700 -1,740 Descending San Juan Center
01:45AM 18.2333 -67.0000 145° Southeast 290 334 12,800 -1,680 Descending San Juan Center
01:46AM 18.1833 -66.9333 128° Southeast 290 334 11,400 -1,500 Descending San Juan Center
01:47AM 18.1167 -66.8833 145° Southeast 270 311 9,800 -1,440 Descending San Juan Center
01:48AM 18.0667 -66.8167 128° Southeast 280 322 8,600 -1,260 Descending San Juan Center
01:49AM 18.0167 -66.7667 136° Southeast 260 299 7,300 -1,260 Descending San Juan Center
01:50AM 17.9667 -66.7167 136° Southeast 260 299 6,100 -780 Descending San Juan Center
01:51AM 17.9167 -66.6667 136° Southeast 240 276 5,800 -240 Descending San Juan Center
01:52AM 17.8667 -66.6167 136° Southeast 220 253 5,700 -660 Descending San Juan Center
01:53AM 17.8667 -66.5667 90° East 220 253 4,500 -1,140 Descending San Juan Center
01:54AM 17.8500 -66.5000 105° East 210 242 3,500 -840 Descending San Juan Center
01:55AM 17.8500 -66.4333 90° East 210 242 2,900 -300 Descending San Juan Center
01:56AM 17.8667 -66.4000 62° Northeast 190 219 2,900  Level San Juan Center
01:57AM 17.9167 -66.4000 360° North 200 230 2,900 -360 Level San Juan Center
01:58AM 17.9500 -66.4333 316° Northwest 200 230 2,200 -900 Descending San Juan Center
01:59AM 17.9833 -66.4833 305° West 160 184 1,200 -1,020 Descending San Juan Center